Nearby METAR Reports

 

K2W6 - St Marys (duke), Maryland, USA
Distance from station: ESE 19mi, 31km
Updated: Wed, 11-Dec-2019 8:15am EST

 Wind from WNW
Wind: WNW 5 mph , 7 km/h
Temperature: 32°F , 0°C
Wind Chill: 27°F , -3°C
Dew Point: 30°F , -1°C
Humidity: 93%
Barometer: 30.37 inHg , 1028.4 hPa
2019/12/11 13:15 K2W6 111315Z AUTO 30004KT 00/M01 A3037 RMK AO1
KADW - Andrews Afb, Maryland, USA
Distance from station: 0 27mi, 43km
Updated: Wed, 11-Dec-2019 7:56am EST
Mostly cloudy
Mostly cloudy
 Wind from NW
Wind: NW 8 mph , 13 km/h
Temperature: 34°F , 1°C
Wind Chill: 27°F , -3°C
Dew Point: 25°F , -4°C
Humidity: 70%
Barometer: 30.33 inHg , 1027.1 hPa
Clouds: Mostly cloudy
Visibility: 10 miles , 16 km
Cloud details: Mostly cloudy 13000 ft
2019/12/11 12:56 KADW 111256Z 31007KT 10SM BKN130 01/M04 A3033 RMK AO2A SLP280 T00091041 $
 
KNHK - Patuxent River, Maryland, USA
Distance from station: ESE 28mi, 45km
Updated: Wed, 11-Dec-2019 7:52am EST
Mostly cloudy
Mostly cloudy
 Wind from NNW
Wind: NNW 16 mph , 26 km/h
Temperature: 36°F , 2°C
Wind Chill: 26°F , -3°C
Dew Point: 28°F , -2°C
Humidity: 75%
Barometer: 30.34 inHg , 1027.4 hPa
Clouds: Mostly cloudy
Visibility: 10 miles , 16 km
Cloud details: Few Clouds 2000 ft
Mostly cloudy 4500 ft
Mostly cloudy 8000 ft
2019/12/11 12:52 KNHK 111252Z 34014KT 10SM FEW020 BKN045 BKN080 02/M02 A3034 RMK AO2 SNB12E37 SLP275 P0000 T00171022
KDCA - Washington/Natl, Washington D.c., USA
Distance from station: NNW 30mi, 49km
Updated: Wed, 11-Dec-2019 7:52am EST
Mostly cloudy
Mostly cloudy
 Wind from NW
Wind: NW 6 mph , 9 km/h
Temperature: 36°F , 2°C
Wind Chill: 31°F , -1°C
Dew Point: 27°F , -3°C
Humidity: 70%
Barometer: 30.36 inHg , 1028.1 hPa
Clouds: Mostly cloudy
Visibility: 10 miles , 16 km
Cloud details: Partly cloudy 11000 ft
Mostly cloudy 14000 ft
Mostly cloudy 19000 ft
2019/12/11 12:52 KDCA 111252Z 32005KT 10SM SCT110 BKN140 BKN190 02/M03 A3036 RMK AO2 SLP281 T00171028
 
KNUI - Webster Naval, Maryland, USA
Distance from station: SE 31mi, 49km
Updated: Wed, 11-Dec-2019 7:53am EST
Overcast
Overcast
 Wind from WNW
Wind: WNW 6 mph , 9 km/h
Temperature: 37°F , 3°C
Wind Chill: 32°F , 0°C
Dew Point: 32°F , 0°C
Humidity: 81%
Barometer: 30.35 inHg , 1027.8 hPa
Clouds: Overcast
Visibility: 10 miles , 16 km
Cloud details: Mostly cloudy 4200 ft
Mostly cloudy 6500 ft
Overcast 9500 ft
2019/12/11 12:53 KNUI 111253Z AUTO 30005KT 10SM BKN042 BKN065 OVC095 03/00 A3035 RMK AO2 SNB29E41 SLP276 P0000 T00280000
KNAK - Annapolis/Naval, Maryland, USA
Distance from station: NNE 44mi, 70km
Updated: Wed, 11-Dec-2019 7:54am EST
Clear
Clear
 Wind from WNW
Wind: WNW 7 mph , 11 km/h
Temperature: 36°F , 2°C
Wind Chill: 30°F , -1°C
Dew Point: 34°F , 1°C
Humidity: 93%
Barometer: 30.34 inHg , 1027.4 hPa
Clouds: Clear
Visibility: 10 miles , 16 km
2019/12/11 12:54 KNAK 111254Z AUTO 30006KT 10SM CLR 02/01 A3034 RMK AO2 SLP276 T00170011